createdAt,value
2023-04-13T00:00:48.064Z,100647.08
2023-04-13T00:03:18.578Z,100653.87
2023-04-13T00:05:48.055Z,100652.93
2023-04-13T00:08:16.165Z,100653.29
2023-04-13T00:10:44.055Z,100657.70
2023-04-13T00:13:12.970Z,100659.77
2023-04-13T00:15:43.457Z,100652.80
2023-04-13T00:18:12.374Z,100655.64
2023-04-13T00:20:42.306Z,100644.27
2023-04-13T00:23:10.655Z,100653.16
2023-04-13T00:25:39.006Z,100655.19
2023-04-13T00:28:07.805Z,100649.17
2023-04-13T00:30:36.003Z,100645.84
2023-04-13T00:33:05.135Z,100642.70
2023-04-13T00:35:33.366Z,100642.70
2023-04-13T00:38:04.005Z,100643.19
2023-04-13T00:40:31.957Z,100642.04
2023-04-13T00:43:01.935Z,100636.68
2023-04-13T00:45:30.256Z,100638.70
2023-04-13T00:47:59.140Z,100636.35
2023-04-13T00:50:27.134Z,100617.84
2023-04-13T00:52:55.241Z,100610.09
2023-04-13T00:55:23.181Z,100611.37
2023-04-13T00:57:54.367Z,100608.52
2023-04-13T01:00:23.045Z,100615.78
2023-04-13T01:02:52.911Z,100609.77
2023-04-13T01:05:21.128Z,100602.84
2023-04-13T01:08:10.428Z,100617.84
2023-04-13T01:10:48.718Z,100625.92
2023-04-13T01:13:25.119Z,100623.53
2023-04-13T01:16:08.144Z,100625.59
2023-04-13T01:18:39.732Z,100626.09
2023-04-13T01:21:14.286Z,100636.64
2023-04-13T01:23:57.640Z,100631.77
2023-04-13T01:26:36.088Z,100635.08
2023-04-13T01:29:04.239Z,100636.32
2023-04-13T01:31:34.681Z,100636.64
2023-04-13T01:34:02.851Z,100641.55
2023-04-13T01:36:31.785Z,100635.86
2023-04-13T01:38:59.692Z,100624.16
2023-04-13T01:41:28.597Z,100628.57
2023-04-13T01:43:56.952Z,100624.16
2023-04-13T01:46:30.193Z,100635.86
2023-04-13T01:49:00.912Z,100633.47
2023-04-13T01:51:33.603Z,100631.91
2023-04-13T01:54:03.918Z,100646.45
2023-04-13T01:56:33.107Z,100639.16
2023-04-13T01:59:01.953Z,100645.18
2023-04-13T02:01:30.042Z,100642.66
2023-04-13T02:03:58.528Z,100645.05
2023-04-13T02:06:27.310Z,100641.38
2023-04-13T02:08:55.678Z,100650.28
2023-04-13T02:11:23.920Z,100655.61
2023-04-13T02:13:51.919Z,100648.35
2023-04-13T02:16:20.537Z,100656.10
2023-04-13T02:18:48.606Z,100650.41
2023-04-13T02:21:17.645Z,100659.73
2023-04-13T02:23:46.104Z,100658.81
2023-04-13T02:26:15.273Z,100657.54
2023-04-13T02:28:43.916Z,100663.10
2023-04-13T02:31:11.961Z,100655.64
2023-04-13T02:33:40.232Z,100660.05
2023-04-13T02:36:08.780Z,100651.39
2023-04-13T02:38:38.783Z,100651.39
2023-04-13T02:41:07.887Z,100652.80
2023-04-13T02:43:35.864Z,100642.53
2023-04-13T02:46:03.893Z,100654.37
2023-04-13T02:48:31.983Z,100651.23
2023-04-13T02:50:59.830Z,100643.64
2023-04-13T02:53:28.558Z,100654.56
2023-04-13T02:55:56.953Z,100647.60
2023-04-13T02:58:25.189Z,100654.56
2023-04-13T03:00:53.533Z,100650.09
2023-04-13T03:03:21.683Z,100648.88
2023-04-13T03:05:51.783Z,100656.13
2023-04-13T03:08:20.147Z,100650.90
2023-04-13T03:10:48.198Z,100652.02
2023-04-13T03:13:16.187Z,100641.55
2023-04-13T03:15:44.208Z,100643.64
2023-04-13T03:18:12.125Z,100649.34
2023-04-13T03:20:40.268Z,100633.21
2023-04-13T03:23:08.457Z,100636.35
2023-04-13T03:25:36.506Z,100630.82
2023-04-13T03:28:04.756Z,100620.85
2023-04-13T03:30:32.888Z,100632.52
2023-04-13T03:33:00.837Z,100637.30
2023-04-13T03:35:28.922Z,100636.80
2023-04-13T03:37:57.316Z,100636.35
2023-04-13T03:40:25.169Z,100638.90
2023-04-13T03:42:53.087Z,100647.24
2023-04-13T03:45:21.034Z,100650.90
2023-04-13T03:47:49.053Z,100651.23
2023-04-13T03:50:16.903Z,100653.91
2023-04-13T03:52:45.384Z,100649.04
2023-04-13T03:55:13.356Z,100650.12
2023-04-13T03:57:41.426Z,100649.20
2023-04-13T04:00:15.260Z,100644.16
2023-04-13T04:02:43.742Z,100655.09
2023-04-13T04:05:12.082Z,100657.45
2023-04-13T04:07:40.141Z,100660.13
2023-04-13T04:10:08.828Z,100653.48
2023-04-13T04:12:37.485Z,100658.26
2023-04-13T04:15:06.701Z,100655.41
2023-04-13T04:17:34.622Z,100649.07
2023-04-13T04:20:02.623Z,100649.73
2023-04-13T04:22:31.293Z,100652.90
2023-04-13T04:25:01.663Z,100653.68
2023-04-13T04:27:29.676Z,100657.64
2023-04-13T04:30:00.678Z,100650.84
2023-04-13T04:32:28.669Z,100653.68
2023-04-13T04:34:56.683Z,100663.95
2023-04-13T04:37:24.743Z,100659.99
2023-04-13T04:39:52.778Z,100662.34
2023-04-13T04:42:20.647Z,100659.34
2023-04-13T04:44:51.365Z,100661.50
2023-04-13T04:47:20.196Z,100667.02
2023-04-13T04:49:48.609Z,100675.39
2023-04-13T04:52:16.601Z,100676.02
2023-04-13T04:54:44.570Z,100679.32
2023-04-13T04:57:13.636Z,100667.74
2023-04-13T04:59:42.225Z,100673.89
2023-04-13T05:02:10.271Z,100672.68
2023-04-13T05:04:41.108Z,100682.91
2023-04-13T05:07:09.034Z,100681.67
2023-04-13T05:09:38.498Z,100682.91
2023-04-13T05:12:06.521Z,100690.96
2023-04-13T05:14:34.375Z,100680.20
2023-04-13T05:17:03.177Z,100687.82
2023-04-13T05:19:31.196Z,100692.40
2023-04-13T05:22:02.429Z,100694.42
2023-04-13T05:24:30.368Z,100691.58
2023-04-13T05:26:58.674Z,100695.24
2023-04-13T05:29:26.757Z,100695.44
2023-04-13T05:31:54.768Z,100703.62
2023-04-13T05:34:22.991Z,100705.05
2023-04-13T05:36:51.495Z,100709.83
2023-04-13T05:39:19.389Z,100713.33
2023-04-13T05:41:47.752Z,100710.35
2023-04-13T05:44:15.683Z,100716.66
2023-04-13T05:46:43.692Z,100707.54
2023-04-13T05:49:12.000Z,100708.16
2023-04-13T05:51:40.618Z,100716.89
2023-04-13T05:54:11.224Z,100720.84
2023-04-13T05:56:39.120Z,100723.89
2023-04-13T05:59:07.368Z,100722.16
2023-04-13T06:01:36.438Z,100725.63
2023-04-13T06:04:05.008Z,100719.48
2023-04-13T06:06:33.988Z,100726.11
2023-04-13T06:09:02.048Z,100722.98
2023-04-13T06:11:30.146Z,100718.59
2023-04-13T06:14:00.096Z,100722.38
2023-04-13T06:16:28.262Z,100718.10
2023-04-13T06:18:56.241Z,100726.02
2023-04-13T06:21:24.211Z,100727.16
2023-04-13T06:23:52.392Z,100735.89
2023-04-13T06:26:21.149Z,100726.99
2023-04-13T06:28:49.091Z,100730.66
2023-04-13T06:31:17.870Z,100738.73
2023-04-13T06:33:45.860Z,100734.62
2023-04-13T06:36:13.951Z,100739.23
2023-04-13T06:38:41.821Z,100736.84
2023-04-13T06:41:09.693Z,100742.98
2023-04-13T06:43:38.306Z,100737.30
2023-04-13T06:46:06.587Z,100742.98
2023-04-13T06:48:34.795Z,100735.56
2023-04-13T06:51:02.937Z,100732.36
2023-04-13T06:53:30.829Z,100743.15
2023-04-13T06:55:58.915Z,100736.02
2023-04-13T06:58:26.855Z,100740.60
2023-04-13T07:00:54.786Z,100740.27
2023-04-13T07:03:22.894Z,100742.30
2023-04-13T07:05:51.124Z,100733.60
2023-04-13T07:08:20.585Z,100735.98
2023-04-13T07:10:48.666Z,100737.43
2023-04-13T07:13:16.707Z,100733.30
2023-04-13T07:15:44.624Z,100741.55
2023-04-13T07:18:12.622Z,100737.13
2023-04-13T07:20:41.142Z,100741.41
2023-04-13T07:23:10.296Z,100737.46
2023-04-13T07:25:38.628Z,100736.97
2023-04-13T07:28:06.496Z,100739.06
2023-04-13T07:30:34.456Z,100738.41
2023-04-13T07:33:02.737Z,100740.80
2023-04-13T07:35:30.669Z,100730.00
2023-04-13T07:37:58.516Z,100732.39
2023-04-13T07:40:26.509Z,100740.96
2023-04-13T07:42:54.499Z,100735.43
2023-04-13T07:45:22.606Z,100738.73
2023-04-13T07:47:51.193Z,100742.40
2023-04-13T07:50:19.361Z,100730.66
2023-04-13T07:52:47.643Z,100722.91
2023-04-13T07:55:15.650Z,100720.20
2023-04-13T07:57:43.620Z,100737.16
2023-04-13T08:00:13.569Z,100734.91
2023-04-13T08:02:41.819Z,100735.37
2023-04-13T08:05:10.800Z,100734.09
2023-04-13T08:07:38.822Z,100735.04
2023-04-13T08:10:08.054Z,100728.53
2023-04-13T08:12:35.910Z,100731.54
2023-04-13T08:15:03.909Z,100728.04
2023-04-13T08:17:31.872Z,100734.52
2023-04-13T08:19:59.967Z,100722.94
2023-04-13T08:22:27.874Z,100736.05
2023-04-13T08:24:55.993Z,100728.01
2023-04-13T08:27:23.922Z,100741.77
2023-04-13T08:29:57.422Z,100735.14
2023-04-13T08:32:25.265Z,100733.50
2023-04-13T08:34:54.191Z,100728.73
2023-04-13T08:37:22.319Z,100735.53
2023-04-13T08:39:50.421Z,100729.25
2023-04-13T08:42:19.955Z,100732.55
2023-04-13T08:44:48.427Z,100733.02
2023-04-13T08:47:16.421Z,100735.17
2023-04-13T08:49:48.156Z,100729.77
2023-04-13T08:52:16.964Z,100722.19
2023-04-13T08:54:45.155Z,100728.20
2023-04-13T08:57:14.871Z,100736.48
2023-04-13T08:59:45.103Z,100728.23
2023-04-13T09:02:13.444Z,100725.27
2023-04-13T09:04:45.287Z,100718.79
2023-04-13T09:07:19.976Z,100715.55
2023-04-13T09:09:48.577Z,100729.35
2023-04-13T09:12:16.537Z,100726.18
2023-04-13T09:14:45.267Z,100726.30
2023-04-13T09:17:27.163Z,100714.70
2023-04-13T09:19:56.650Z,100728.20
2023-04-13T09:22:26.283Z,100723.46
2023-04-13T09:24:54.281Z,100719.38
2023-04-13T09:27:23.605Z,100721.37
2023-04-13T09:29:57.033Z,100721.89
2023-04-13T09:32:27.025Z,100709.56
2023-04-13T09:35:09.757Z,100702.11
2023-04-13T09:37:39.016Z,100713.49
2023-04-13T09:40:20.322Z,100714.90
2023-04-13T09:42:57.383Z,100717.05
2023-04-13T09:45:25.545Z,100714.08
2023-04-13T09:47:54.439Z,100713.62
2023-04-13T09:50:28.476Z,100709.47
2023-04-13T09:53:03.018Z,100700.90
2023-04-13T09:55:31.915Z,100708.20
2023-04-13T09:58:17.860Z,100704.23
2023-04-13T10:00:50.153Z,100708.48
2023-04-13T10:03:20.270Z,100699.27
2023-04-13T10:08:27.260Z,100681.84
2023-04-13T10:11:03.618Z,100678.99
2023-04-13T10:13:51.247Z,100692.01
2023-04-13T10:16:28.660Z,100683.05
2023-04-13T10:19:06.529Z,100677.16
2023-04-13T10:21:40.471Z,100674.38
2023-04-13T10:24:13.221Z,100664.60
2023-04-13T10:26:42.901Z,100662.05
2023-04-13T10:29:12.884Z,100660.58
2023-04-13T10:31:43.062Z,100664.70
2023-04-13T10:34:11.977Z,100661.37
2023-04-13T10:36:44.573Z,100664.90
2023-04-13T10:39:12.880Z,100666.56
2023-04-13T10:41:40.833Z,100654.92
2023-04-13T10:44:09.873Z,100649.70
2023-04-13T10:46:37.871Z,100641.32
2023-04-13T10:49:06.365Z,100650.31
2023-04-13T10:51:42.277Z,100649.70
2023-04-13T10:54:11.618Z,100649.40
2023-04-13T10:56:40.110Z,100655.25
2023-04-13T10:59:08.347Z,100655.45
2023-04-13T11:01:37.186Z,100657.31
2023-04-13T11:04:08.933Z,100652.47
2023-04-13T11:06:40.893Z,100655.31
2023-04-13T11:09:15.145Z,100664.31
2023-04-13T11:11:44.621Z,100662.05
2023-04-13T11:14:22.439Z,100657.90
2023-04-13T11:16:50.910Z,100660.84
2023-04-13T11:19:20.232Z,100657.57
2023-04-13T11:21:55.384Z,100657.31
2023-04-13T11:24:35.144Z,100663.03
2023-04-13T11:27:03.249Z,100660.77
2023-04-13T11:29:31.357Z,100659.57
2023-04-13T11:31:59.739Z,100659.93
2023-04-13T11:34:30.224Z,100656.30
2023-04-13T11:37:02.923Z,100648.19
2023-04-13T11:39:30.949Z,100637.76
2023-04-13T11:41:59.581Z,100641.22
2023-04-13T11:44:27.557Z,100636.91
2023-04-13T11:46:57.695Z,100640.93
2023-04-13T11:49:25.733Z,100642.10
2023-04-13T11:51:53.774Z,100640.14
2023-04-13T11:54:21.816Z,100642.92
2023-04-13T11:56:50.500Z,100648.84
2023-04-13T11:59:24.583Z,100644.69
2023-04-13T12:02:01.548Z,100642.62
2023-04-13T12:04:42.311Z,100636.13
2023-04-13T12:07:15.501Z,100632.95
2023-04-13T12:15:10.667Z,100628.24
2023-04-13T12:17:49.474Z,100630.98
2023-04-13T12:20:20.274Z,100621.15
2023-04-13T12:22:57.585Z,100612.45
2023-04-13T12:25:35.117Z,100616.57
2023-04-13T12:28:05.013Z,100610.23
2023-04-13T12:30:34.331Z,100602.11
2023-04-13T12:33:02.479Z,100598.45
2023-04-13T12:35:30.465Z,100591.68
2023-04-13T12:37:58.561Z,100589.78
2023-04-13T12:40:26.447Z,100592.04
2023-04-13T12:42:54.528Z,100586.77
2023-04-13T12:45:22.566Z,100580.63
2023-04-13T12:47:50.579Z,100575.10
2023-04-13T12:50:18.532Z,100580.92
2023-04-13T12:52:46.673Z,100577.03
2023-04-13T12:55:14.746Z,100577.85
2023-04-13T12:57:43.030Z,100573.17
2023-04-13T13:00:12.681Z,100578.02
2023-04-13T13:02:40.873Z,100578.66
2023-04-13T13:05:10.650Z,100580.07
2023-04-13T13:07:38.625Z,100570.69
2023-04-13T13:10:25.950Z,100563.10
2023-04-13T13:12:57.164Z,100571.21
2023-04-13T13:15:25.220Z,100575.04
2023-04-13T13:17:53.078Z,100567.84
2023-04-13T13:20:21.134Z,100573.17
2023-04-13T13:22:49.036Z,100566.17
2023-04-13T13:25:17.600Z,100575.07
2023-04-13T13:30:16.681Z,100576.58
2023-04-13T13:32:44.541Z,100572.39
2023-04-13T13:35:12.513Z,100567.88
2023-04-13T13:37:41.088Z,100558.20
2023-04-13T13:40:14.129Z,100554.60
2023-04-13T13:45:13.391Z,100554.89
2023-04-13T13:47:41.372Z,100550.12
2023-04-13T13:50:09.950Z,100550.35
2023-04-13T13:52:40.274Z,100556.01
2023-04-13T13:55:12.213Z,100552.05
2023-04-13T13:57:40.136Z,100548.68
2023-04-13T14:00:18.068Z,100534.85
2023-04-13T14:02:46.906Z,100555.02
2023-04-13T14:05:15.057Z,100562.61
2023-04-13T14:07:47.196Z,100560.16
2023-04-13T14:10:15.588Z,100560.32
2023-04-13T14:12:48.756Z,100566.02
2023-04-13T14:15:18.458Z,100560.26
2023-04-13T14:17:55.465Z,100558.39
2023-04-13T14:20:35.585Z,100562.28
2023-04-13T14:23:03.530Z,100559.15
2023-04-13T14:25:31.648Z,100551.04
2023-04-13T14:27:59.503Z,100553.62
2023-04-13T14:30:28.270Z,100564.73
2023-04-13T14:32:57.476Z,100557.87
2023-04-13T14:35:26.169Z,100555.48
2023-04-13T14:37:54.187Z,100556.50
2023-04-13T14:40:24.404Z,100561.14
2023-04-13T14:42:54.070Z,100567.05
2023-04-13T14:45:22.931Z,100571.70
2023-04-13T14:47:51.468Z,100570.39
2023-04-13T14:50:19.547Z,100581.05
2023-04-13T14:52:48.412Z,100579.95
2023-04-13T14:55:16.816Z,100582.43
2023-04-13T14:57:44.877Z,100588.28
2023-04-13T15:00:17.458Z,100582.98
2023-04-13T15:02:45.995Z,100580.40
2023-04-13T15:05:14.901Z,100585.89
2023-04-13T15:07:44.578Z,100588.28
2023-04-13T15:10:12.613Z,100597.24
2023-04-13T15:12:42.176Z,100600.61
2023-04-13T15:15:11.141Z,100609.66
2023-04-13T15:17:39.233Z,100630.43
2023-04-13T15:20:08.868Z,100640.44
2023-04-13T15:22:37.289Z,100647.56
2023-04-13T15:25:05.666Z,100662.25
2023-04-13T15:27:33.725Z,100680.07
2023-04-13T15:30:04.253Z,100681.70
2023-04-13T15:32:35.329Z,100682.98
2023-04-13T15:35:03.595Z,100678.41
2023-04-13T15:37:31.554Z,100686.48
2023-04-13T15:39:59.520Z,100675.69
2023-04-13T15:42:27.465Z,100703.81
2023-04-13T15:44:56.490Z,100701.52
2023-04-13T15:47:24.405Z,100713.49
2023-04-13T15:49:52.288Z,100711.56
2023-04-13T15:52:20.242Z,100706.00
2023-04-13T15:54:48.353Z,100720.48
2023-04-13T15:57:17.662Z,100711.46
2023-04-13T15:59:45.897Z,100714.24
2023-04-13T16:02:13.923Z,100707.38
2023-04-13T16:04:42.423Z,100710.68
2023-04-13T16:07:14.471Z,100710.68
2023-04-13T16:09:45.236Z,100711.10
2023-04-13T16:12:13.403Z,100712.87
2023-04-13T16:14:46.055Z,100726.60
2023-04-13T16:17:16.204Z,100734.91
2023-04-13T16:19:47.967Z,100722.91
2023-04-13T16:22:15.926Z,100731.12
2023-04-13T16:24:44.524Z,100747.79
2023-04-13T16:27:12.549Z,100747.14
2023-04-13T16:29:42.991Z,100743.31
2023-04-13T16:32:10.835Z,100746.16
2023-04-13T16:34:38.730Z,100743.45
2023-04-13T16:37:06.715Z,100750.96
2023-04-13T16:39:34.765Z,100746.35
2023-04-13T16:42:02.762Z,100743.93
2023-04-13T16:44:30.704Z,100747.40
2023-04-13T16:46:58.700Z,100751.48
2023-04-13T16:49:26.787Z,100750.93
2023-04-13T16:51:54.684Z,100758.55
2023-04-13T16:54:22.670Z,100743.84
2023-04-13T16:56:50.619Z,100750.41
2023-04-13T16:59:18.580Z,100743.93
2023-04-13T17:01:47.175Z,100746.32
2023-04-13T17:04:15.523Z,100738.48
2023-04-13T17:06:43.607Z,100743.12
2023-04-13T17:09:11.542Z,100734.91
2023-04-13T17:11:39.452Z,100737.33
2023-04-13T17:14:07.472Z,100731.18
2023-04-13T17:16:35.498Z,100726.18
2023-04-13T17:19:03.643Z,100718.79
2023-04-13T17:21:31.569Z,100713.75
2023-04-13T17:23:59.550Z,100720.45
2023-04-13T17:26:27.458Z,100722.81
2023-04-13T17:28:55.335Z,100722.81
2023-04-13T17:31:23.313Z,100719.38
2023-04-13T17:33:51.353Z,100723.70
2023-04-13T17:36:19.633Z,100718.98
2023-04-13T17:38:47.520Z,100730.56
2023-04-13T17:41:15.442Z,100730.76
2023-04-13T17:43:43.303Z,100731.87
2023-04-13T17:46:11.499Z,100718.00
2023-04-13T17:48:40.494Z,100730.49
2023-04-13T17:51:11.787Z,100738.70
2023-04-13T17:53:40.048Z,100751.32
2023-04-13T17:56:08.062Z,100752.89
2023-04-13T17:58:36.300Z,100757.80
2023-04-13T18:01:11.698Z,100759.04
2023-04-13T18:03:40.076Z,100775.78
2023-04-13T18:06:08.535Z,100777.98
2023-04-13T18:08:36.717Z,100782.98
2023-04-13T18:11:04.729Z,100780.63
2023-04-13T18:13:32.876Z,100804.76
2023-04-13T18:16:00.824Z,100793.51
2023-04-13T18:18:28.897Z,100796.45
2023-04-13T18:20:57.013Z,100796.58
2023-04-13T18:23:25.014Z,100801.26
2023-04-13T18:25:53.401Z,100801.84
2023-04-13T18:28:21.282Z,100808.78
2023-04-13T18:30:49.292Z,100804.82
2023-04-13T18:33:17.235Z,100801.98
2023-04-13T18:35:46.965Z,100804.13
2023-04-13T18:38:14.927Z,100811.49
2023-04-13T18:40:43.022Z,100807.66
2023-04-13T18:43:10.961Z,100811.30
2023-04-13T18:45:39.383Z,100816.63
2023-04-13T18:48:08.528Z,100819.47
2023-04-13T18:50:36.854Z,100830.59
2023-04-13T18:53:04.777Z,100814.01
2023-04-13T18:55:32.765Z,100820.29
2023-04-13T18:58:00.816Z,100815.41
2023-04-13T19:00:28.668Z,100820.29
2023-04-13T19:02:58.372Z,100819.47
2023-04-13T19:05:27.396Z,100818.23
2023-04-13T19:08:00.410Z,100808.48
2023-04-13T19:10:29.705Z,100820.06
2023-04-13T19:12:57.868Z,100817.54
2023-04-13T19:15:26.435Z,100816.63
2023-04-13T19:17:54.534Z,100814.11
2023-04-13T19:20:24.258Z,100804.73
2023-04-13T19:22:52.504Z,100816.07
2023-04-13T19:25:20.714Z,100814.01
2023-04-13T19:27:49.599Z,100817.09
2023-04-13T19:30:19.791Z,100825.12
2023-04-13T19:32:49.480Z,100831.15
2023-04-13T19:35:18.250Z,100828.66
2023-04-13T19:37:46.349Z,100827.38
2023-04-13T19:40:15.892Z,100834.32
2023-04-13T19:42:45.492Z,100835.59
2023-04-13T19:45:16.950Z,100837.98
2023-04-13T19:47:45.466Z,100844.23
2023-04-13T19:50:15.442Z,100837.88
2023-04-13T19:52:43.910Z,100845.01
2023-04-13T19:55:12.187Z,100846.28
2023-04-13T19:57:44.392Z,100855.70
2023-04-13T20:00:21.400Z,100854.46
2023-04-13T20:02:50.997Z,100865.12
2023-04-13T20:05:20.814Z,100863.19
2023-04-13T20:07:48.715Z,100863.78
2023-04-13T20:10:16.725Z,100876.01
2023-04-13T20:12:44.653Z,100877.84
2023-04-13T20:15:12.908Z,100878.04
2023-04-13T20:17:40.890Z,100872.02
2023-04-13T20:20:11.469Z,100873.63
2023-04-13T20:22:40.068Z,100874.87
2023-04-13T20:25:08.436Z,100873.95
2023-04-13T20:27:38.984Z,100875.23
2023-04-13T20:30:07.503Z,100868.39
2023-04-13T20:32:35.501Z,100868.75
2023-04-13T20:35:04.186Z,100861.36
2023-04-13T20:37:32.140Z,100869.44
2023-04-13T20:40:00.086Z,100861.69
2023-04-13T20:42:28.462Z,100861.03
2023-04-13T20:44:58.529Z,100862.27
2023-04-13T20:47:28.697Z,100860.34
2023-04-13T20:49:58.785Z,100865.12
2023-04-13T20:52:28.688Z,100859.10
2023-04-13T20:54:57.308Z,100863.75
2023-04-13T20:57:25.148Z,100858.84
2023-04-13T20:59:53.500Z,100849.55
2023-04-13T21:02:21.887Z,100848.77
2023-04-13T21:04:49.978Z,100838.99
2023-04-13T21:07:17.976Z,100835.82
2023-04-13T21:09:45.868Z,100825.81
2023-04-13T21:12:13.744Z,100819.70
2023-04-13T21:14:41.605Z,100815.16
2023-04-13T21:17:09.544Z,100807.77
2023-04-13T21:19:38.066Z,100801.20
2023-04-13T21:22:06.062Z,100784.52
2023-04-13T21:24:33.975Z,100781.57
2023-04-13T21:27:02.810Z,100775.55
2023-04-13T21:29:30.729Z,100782.81
2023-04-13T21:31:58.654Z,100787.36
2023-04-13T21:34:28.489Z,100792.69
2023-04-13T21:36:56.443Z,100791.55
2023-04-13T21:39:24.764Z,100808.02
2023-04-13T21:41:52.642Z,100819.83
2023-04-13T21:44:29.426Z,100825.84
2023-04-13T21:46:59.679Z,100826.17
2023-04-13T21:49:27.888Z,100833.89
2023-04-13T21:51:55.813Z,100834.02
2023-04-13T21:54:23.726Z,100830.49
2023-04-13T21:56:51.747Z,100821.17
2023-04-13T21:59:19.672Z,100818.69
2023-04-13T22:01:48.204Z,100806.66
2023-04-13T22:04:16.648Z,100799.85
2023-04-13T22:06:44.715Z,100814.01
2023-04-13T22:09:13.556Z,100804.69
2023-04-13T22:11:41.734Z,100805.61
2023-04-13T22:14:09.714Z,100808.55
2023-04-13T22:16:37.722Z,100810.15
2023-04-13T22:19:05.695Z,100808.55
2023-04-13T22:21:36.270Z,100811.88
2023-04-13T22:24:04.402Z,100802.66
2023-04-13T22:26:32.323Z,100797.10
2023-04-13T22:29:00.476Z,100787.82
2023-04-13T22:31:28.700Z,100805.28
2023-04-13T22:33:57.801Z,100805.28
2023-04-13T22:36:25.735Z,100813.00
2023-04-13T22:38:54.158Z,100819.44
2023-04-13T22:41:22.181Z,100834.88
2023-04-13T22:43:50.008Z,100821.95
2023-04-13T22:46:18.124Z,100826.86
2023-04-13T22:48:46.011Z,100822.64
2023-04-13T22:51:13.844Z,100836.02
2023-04-13T22:53:41.821Z,100831.57
2023-04-13T22:56:09.670Z,100825.91
2023-04-13T22:58:37.587Z,100823.16
2023-04-13T23:01:05.944Z,100826.01
2023-04-13T23:03:34.122Z,100831.34
2023-04-13T23:06:02.138Z,100834.97
2023-04-13T23:08:30.664Z,100830.42
2023-04-13T23:10:58.630Z,100822.74
2023-04-13T23:13:26.755Z,100813.06
2023-04-13T23:16:01.228Z,100821.14
2023-04-13T23:18:29.553Z,100832.48
2023-04-13T23:20:57.724Z,100830.79
2023-04-13T23:23:25.789Z,100826.47
2023-04-13T23:25:53.716Z,100824.31
2023-04-13T23:28:21.774Z,100815.80
2023-04-13T23:30:49.631Z,100819.44
2023-04-13T23:33:17.591Z,100814.56
2023-04-13T23:35:53.426Z,100807.63
2023-04-13T23:38:21.287Z,100799.69
2023-04-13T23:40:49.129Z,100811.39
2023-04-13T23:43:16.984Z,100800.83
2023-04-13T23:45:45.561Z,100802.30
2023-04-13T23:48:13.484Z,100790.63
2023-04-13T23:50:41.424Z,100800.38
2023-04-13T23:53:09.294Z,100810.02
2023-04-13T23:55:37.251Z,100791.88
2023-04-13T23:58:05.124Z,100810.48
